createdAt,value
2019-05-20T00:00:52.290Z,16.58
2019-05-20T00:01:52.243Z,16.47
2019-05-20T00:02:52.217Z,16.54
2019-05-20T00:03:52.215Z,16.43
2019-05-20T00:04:52.165Z,16.46
2019-05-20T00:05:52.468Z,16.38
2019-05-20T00:06:52.119Z,16.36
2019-05-20T00:07:52.093Z,16.32
2019-05-20T00:08:52.086Z,16.31
2019-05-20T00:09:52.036Z,16.29
2019-05-20T00:10:52.012Z,16.32
2019-05-20T00:11:53.734Z,16.35
2019-05-20T00:12:51.961Z,16.38
2019-05-20T00:13:51.951Z,16.32
2019-05-20T00:14:51.908Z,16.28
2019-05-20T00:15:51.875Z,16.28
2019-05-20T00:16:51.849Z,16.31
2019-05-20T00:17:51.825Z,16.28
2019-05-20T00:18:51.820Z,16.21
2019-05-20T00:19:51.780Z,16.24
2019-05-20T00:20:51.746Z,16.23
2019-05-20T00:21:51.723Z,16.20
2019-05-20T00:22:51.694Z,16.05
2019-05-20T00:23:51.698Z,16.10
2019-05-20T00:24:51.642Z,16.02
2019-05-20T00:25:51.619Z,16.01
2019-05-20T00:26:51.588Z,15.95
2019-05-20T00:27:51.560Z,16.10
2019-05-20T00:28:51.577Z,16.10
2019-05-20T00:29:51.512Z,16.00
2019-05-20T00:30:51.481Z,16.02
2019-05-20T00:31:51.456Z,16.01
2019-05-20T00:32:51.429Z,15.95
2019-05-20T00:33:51.462Z,15.90
2019-05-20T00:34:51.374Z,15.97
2019-05-20T00:35:51.353Z,15.95
2019-05-20T00:36:51.336Z,15.80
2019-05-20T00:37:51.300Z,15.95
2019-05-20T00:38:51.305Z,15.90
2019-05-20T00:39:51.268Z,16.00
2019-05-20T00:40:51.257Z,15.97
2019-05-20T00:41:51.229Z,15.97
2019-05-20T00:42:51.170Z,15.90
2019-05-20T00:43:51.163Z,15.91
2019-05-20T00:44:51.112Z,15.91
2019-05-20T00:45:51.087Z,15.79
2019-05-20T00:46:51.071Z,15.79
2019-05-20T00:47:51.040Z,15.77
2019-05-20T00:48:51.034Z,15.79
2019-05-20T00:49:50.984Z,15.70
2019-05-20T00:50:51.767Z,15.77
2019-05-20T00:51:50.943Z,15.73
2019-05-20T00:52:50.915Z,15.72
2019-05-20T00:53:50.921Z,15.68
2019-05-20T00:54:50.850Z,15.77
2019-05-20T00:55:50.823Z,15.64
2019-05-20T00:56:50.805Z,15.73
2019-05-20T00:57:50.774Z,15.59
2019-05-20T00:58:50.768Z,15.55
2019-05-20T00:59:50.717Z,15.55
2019-05-20T01:00:50.739Z,15.59
2019-05-20T01:01:50.672Z,15.52
2019-05-20T01:02:57.024Z,15.58
2019-05-20T01:03:50.619Z,15.59
2019-05-20T01:04:50.612Z,15.57
2019-05-20T01:05:50.557Z,15.55
2019-05-20T01:06:50.565Z,15.49
2019-05-20T01:07:50.504Z,15.49
2019-05-20T01:08:50.477Z,15.44
2019-05-20T01:09:50.478Z,15.42
2019-05-20T01:10:50.462Z,15.43
2019-05-20T01:11:50.395Z,15.37
2019-05-20T01:12:50.379Z,15.42
2019-05-20T01:13:50.342Z,15.37
2019-05-20T01:14:50.343Z,15.29
2019-05-20T01:15:50.292Z,15.35
2019-05-20T01:16:50.265Z,15.35
2019-05-20T01:17:50.236Z,15.35
2019-05-20T01:18:50.211Z,15.29
2019-05-20T01:19:50.204Z,15.29
2019-05-20T01:20:50.178Z,15.19
2019-05-20T01:21:50.131Z,15.21
2019-05-20T01:22:50.102Z,15.21
2019-05-20T01:23:50.074Z,15.17
2019-05-20T01:24:50.077Z,15.31
2019-05-20T01:25:50.021Z,15.31
2019-05-20T01:26:49.995Z,15.19
2019-05-20T01:27:49.992Z,15.22
2019-05-20T01:28:49.943Z,15.22
2019-05-20T01:29:49.943Z,15.24
2019-05-20T01:30:49.886Z,15.21
2019-05-20T01:31:49.865Z,15.19
2019-05-20T01:32:50.773Z,15.21
2019-05-20T01:33:49.806Z,15.18
2019-05-20T01:34:49.800Z,15.10
2019-05-20T01:35:57.377Z,15.11
2019-05-20T01:36:49.730Z,15.17
2019-05-20T01:37:49.742Z,15.04
2019-05-20T01:38:49.674Z,15.04
2019-05-20T01:39:49.677Z,15.04
2019-05-20T01:40:49.643Z,15.06
2019-05-20T01:41:49.589Z,15.06
2019-05-20T01:42:49.566Z,14.97
2019-05-20T01:43:49.575Z,14.92
2019-05-20T01:44:49.541Z,14.94
2019-05-20T01:45:49.481Z,15.03
2019-05-20T01:46:49.470Z,14.92
2019-05-20T01:47:49.426Z,14.84
2019-05-20T01:48:49.404Z,14.88
2019-05-20T01:49:49.409Z,14.88
2019-05-20T01:50:49.344Z,14.81
2019-05-20T01:51:49.321Z,14.77
2019-05-20T01:52:49.299Z,14.88
2019-05-20T01:53:49.270Z,14.77
2019-05-20T01:54:49.266Z,14.81
2019-05-20T01:55:49.214Z,14.84
2019-05-20T01:56:49.190Z,14.81
2019-05-20T01:57:49.160Z,14.88
2019-05-20T01:58:49.131Z,14.88
2019-05-20T01:59:49.139Z,14.72
2019-05-20T02:00:49.076Z,14.78
2019-05-20T02:01:49.048Z,14.85
2019-05-20T02:02:49.043Z,14.78
2019-05-20T02:03:49.017Z,14.78
2019-05-20T02:04:48.998Z,14.77
2019-05-20T02:05:48.976Z,14.70
2019-05-20T02:06:48.922Z,14.65
2019-05-20T02:07:48.885Z,14.68
2019-05-20T02:08:48.859Z,14.68
2019-05-20T02:09:48.861Z,14.70
2019-05-20T02:10:48.812Z,14.68
2019-05-20T02:11:48.779Z,14.66
2019-05-20T02:12:48.750Z,14.68
2019-05-20T02:13:48.742Z,14.70
2019-05-20T02:14:48.732Z,14.72
2019-05-20T02:15:48.672Z,14.69
2019-05-20T02:16:48.648Z,14.69
2019-05-20T02:17:48.621Z,14.65
2019-05-20T02:18:48.587Z,14.59
2019-05-20T02:19:48.604Z,14.59
2019-05-20T02:20:48.540Z,14.68
2019-05-20T02:21:48.510Z,14.54
2019-05-20T02:22:48.488Z,14.59
2019-05-20T02:23:48.478Z,14.60
2019-05-20T02:24:48.428Z,14.60
2019-05-20T02:25:48.429Z,14.62
2019-05-20T02:26:48.390Z,14.53
2019-05-20T02:27:48.407Z,14.54
2019-05-20T02:28:48.316Z,14.47
2019-05-20T02:29:48.297Z,14.37
2019-05-20T02:30:48.300Z,14.47
2019-05-20T02:31:48.250Z,14.48
2019-05-20T02:32:48.206Z,14.45
2019-05-20T02:33:52.257Z,14.33
2019-05-20T02:34:48.158Z,14.37
2019-05-20T02:35:48.154Z,14.36
2019-05-20T02:36:48.099Z,14.40
2019-05-20T02:37:48.077Z,14.41
2019-05-20T02:38:48.040Z,14.35
2019-05-20T02:39:48.016Z,14.35
2019-05-20T02:40:48.024Z,14.32
2019-05-20T02:41:47.964Z,14.40
2019-05-20T02:42:47.957Z,14.35
2019-05-20T02:43:47.911Z,14.32
2019-05-20T02:44:47.906Z,14.36
2019-05-20T02:45:47.883Z,14.29
2019-05-20T02:46:47.826Z,14.26
2019-05-20T02:47:51.316Z,14.33
2019-05-20T02:48:47.798Z,14.22
2019-05-20T02:49:47.746Z,14.28
2019-05-20T02:50:47.740Z,14.35
2019-05-20T02:51:47.691Z,14.29
2019-05-20T02:52:47.658Z,14.25
2019-05-20T02:53:47.634Z,14.32
2019-05-20T02:54:47.608Z,14.35
2019-05-20T02:55:47.604Z,14.32
2019-05-20T02:56:47.556Z,14.33
2019-05-20T02:57:48.357Z,14.36
2019-05-20T02:58:47.496Z,14.37
2019-05-20T02:59:47.477Z,14.37
2019-05-20T03:00:47.470Z,14.32
2019-05-20T03:01:47.417Z,14.41
2019-05-20T03:02:47.400Z,14.44
2019-05-20T03:03:47.377Z,14.44
2019-05-20T03:04:47.333Z,14.33
2019-05-20T03:05:47.322Z,14.41
2019-05-20T03:06:47.288Z,14.47
2019-05-20T03:07:47.254Z,14.33
2019-05-20T03:08:47.230Z,14.33
2019-05-20T03:09:47.220Z,14.36
2019-05-20T03:10:50.319Z,14.44
2019-05-20T03:11:47.144Z,14.47
2019-05-20T03:12:47.121Z,14.50
2019-05-20T03:13:47.083Z,14.45
2019-05-20T03:14:47.076Z,14.37
2019-05-20T03:15:47.051Z,14.36
2019-05-20T03:16:47.905Z,14.41
2019-05-20T03:17:46.985Z,14.33
2019-05-20T03:18:46.961Z,14.32
2019-05-20T03:19:46.923Z,14.36
2019-05-20T03:20:46.915Z,14.40
2019-05-20T03:21:46.875Z,14.43
2019-05-20T03:22:47.401Z,14.35
2019-05-20T03:23:46.803Z,14.35
2019-05-20T03:24:46.799Z,14.41
2019-05-20T03:25:46.782Z,14.32
2019-05-20T03:26:47.325Z,14.40
2019-05-20T03:27:46.721Z,14.36
2019-05-20T03:28:46.678Z,14.36
2019-05-20T03:29:46.646Z,14.36
2019-05-20T03:30:46.636Z,14.35
2019-05-20T03:31:46.594Z,14.43
2019-05-20T03:32:46.556Z,14.35
2019-05-20T03:33:46.564Z,14.37
2019-05-20T03:34:57.475Z,14.37
2019-05-20T03:35:46.514Z,14.36
2019-05-20T03:36:46.453Z,14.35
2019-05-20T03:37:46.436Z,14.37
2019-05-20T03:38:46.397Z,14.50
2019-05-20T03:39:46.366Z,14.45
2019-05-20T03:40:46.362Z,14.41
2019-05-20T03:41:46.315Z,14.54
2019-05-20T03:42:46.279Z,14.55
2019-05-20T03:43:46.260Z,14.58
2019-05-20T03:44:46.228Z,14.65
2019-05-20T03:45:46.200Z,14.70
2019-05-20T03:46:46.204Z,14.73
2019-05-20T03:47:46.144Z,14.86
2019-05-20T03:48:46.118Z,14.94
2019-05-20T03:49:46.126Z,14.96
2019-05-20T03:50:46.068Z,14.91
2019-05-20T03:51:46.062Z,15.03
2019-05-20T03:52:46.009Z,15.03
2019-05-20T03:53:45.989Z,15.04
2019-05-20T03:54:45.957Z,15.04
2019-05-20T03:55:45.929Z,15.10
2019-05-20T03:56:45.934Z,15.10
2019-05-20T03:57:45.875Z,15.02
2019-05-20T03:58:45.845Z,15.14
2019-05-20T03:59:45.822Z,15.19
2019-05-20T04:00:45.803Z,15.21
2019-05-20T04:01:45.793Z,15.31
2019-05-20T04:02:45.785Z,15.35
2019-05-20T04:03:45.711Z,15.31
2019-05-20T04:05:00.583Z,15.35
2019-05-20T04:05:45.664Z,15.35
2019-05-20T04:06:45.654Z,15.46
2019-05-20T04:07:45.610Z,15.51
2019-05-20T04:08:45.578Z,15.61
2019-05-20T04:09:45.554Z,15.65
2019-05-20T04:10:45.543Z,15.72
2019-05-20T04:11:45.597Z,15.77
2019-05-20T04:12:45.473Z,15.86
2019-05-20T04:13:45.453Z,15.82
2019-05-20T04:14:45.421Z,15.83
2019-05-20T04:15:45.421Z,15.88
2019-05-20T04:16:45.387Z,15.92
2019-05-20T04:17:45.342Z,15.97
2019-05-20T04:18:45.321Z,16.08
2019-05-20T04:19:45.298Z,16.09
2019-05-20T04:20:45.265Z,16.13
2019-05-20T04:21:45.263Z,16.13
2019-05-20T04:22:45.223Z,16.26
2019-05-20T04:23:45.198Z,16.28
2019-05-20T04:24:45.919Z,16.49
2019-05-20T04:25:45.137Z,16.43
2019-05-20T04:26:45.141Z,16.49
2019-05-20T04:27:45.091Z,16.66
2019-05-20T04:28:45.054Z,16.72
2019-05-20T04:29:45.029Z,16.69
2019-05-20T04:30:45.018Z,16.71
2019-05-20T04:31:45.047Z,16.83
2019-05-20T04:32:44.948Z,16.86
2019-05-20T04:33:44.926Z,16.90
2019-05-20T04:34:44.963Z,16.93
2019-05-20T04:35:49.252Z,17.04
2019-05-20T04:36:44.872Z,17.04
2019-05-20T04:37:44.821Z,17.02
2019-05-20T04:38:44.792Z,16.89
2019-05-20T04:39:44.768Z,17.01
2019-05-20T04:40:44.743Z,17.08
2019-05-20T04:41:44.737Z,17.22
2019-05-20T04:42:44.699Z,17.29
2019-05-20T04:43:44.680Z,17.39
2019-05-20T04:44:44.691Z,17.29
2019-05-20T04:45:44.618Z,17.29
2019-05-20T04:46:44.617Z,17.27
2019-05-20T04:47:44.573Z,17.23
2019-05-20T04:48:44.552Z,17.26
2019-05-20T04:49:44.523Z,17.33
2019-05-20T04:50:44.496Z,17.31
2019-05-20T04:51:44.492Z,17.34
2019-05-20T04:52:44.439Z,17.38
2019-05-20T04:53:44.593Z,17.29
2019-05-20T04:54:45.343Z,17.22
2019-05-20T04:55:44.364Z,17.14
2019-05-20T04:56:44.366Z,17.24
2019-05-20T04:57:44.315Z,17.22
2019-05-20T04:58:44.296Z,17.27
2019-05-20T04:59:44.263Z,17.27
2019-05-20T05:00:44.259Z,17.14
2019-05-20T05:01:44.212Z,17.12
2019-05-20T05:02:44.217Z,17.09
2019-05-20T05:03:44.182Z,17.09
2019-05-20T05:04:44.152Z,17.11
2019-05-20T05:05:44.121Z,17.05
2019-05-20T05:06:44.089Z,17.08
2019-05-20T05:07:44.091Z,17.04
2019-05-20T05:08:44.042Z,16.99
2019-05-20T05:09:44.038Z,17.01
2019-05-20T05:10:43.987Z,16.94
2019-05-20T05:11:43.961Z,17.01
2019-05-20T05:12:43.964Z,16.89
2019-05-20T05:13:43.912Z,16.89
2019-05-20T05:14:43.892Z,16.87
2019-05-20T05:15:43.863Z,16.89
2019-05-20T05:16:46.354Z,16.94
2019-05-20T05:17:43.834Z,17.11
2019-05-20T05:18:43.799Z,17.24
2019-05-20T05:19:43.773Z,17.33
2019-05-20T05:20:43.736Z,17.33
2019-05-20T05:21:43.711Z,17.36
2019-05-20T05:22:43.731Z,17.38
2019-05-20T05:23:56.949Z,17.30
2019-05-20T05:24:43.649Z,17.29
2019-05-20T05:25:43.614Z,17.49
2019-05-20T05:26:43.588Z,17.57
2019-05-20T05:27:43.590Z,17.72
2019-05-20T05:28:43.538Z,17.80
2019-05-20T05:29:43.513Z,17.79
2019-05-20T05:30:43.494Z,17.68
2019-05-20T05:31:43.461Z,17.83
2019-05-20T05:32:44.318Z,17.85
2019-05-20T05:33:43.412Z,18.01
2019-05-20T05:34:43.405Z,17.98
2019-05-20T05:35:52.701Z,18.10
2019-05-20T05:36:43.338Z,18.20
2019-05-20T05:37:43.335Z,18.35
2019-05-20T05:38:43.290Z,18.43
2019-05-20T05:39:43.261Z,18.62
2019-05-20T05:40:43.286Z,18.63
2019-05-20T05:41:43.216Z,18.77
2019-05-20T05:42:43.217Z,18.90
2019-05-20T05:43:43.162Z,18.86
2019-05-20T05:44:43.136Z,18.90
2019-05-20T05:45:43.168Z,18.83
2019-05-20T05:46:43.089Z,18.95
2019-05-20T05:47:43.089Z,18.83
2019-05-20T05:48:43.050Z,18.88
2019-05-20T05:49:43.031Z,18.89
2019-05-20T05:50:43.005Z,18.78
2019-05-20T05:51:42.969Z,18.71
2019-05-20T05:52:42.977Z,18.62
2019-05-20T05:53:42.923Z,18.71
2019-05-20T05:54:42.895Z,18.53
2019-05-20T05:55:42.875Z,18.66
2019-05-20T05:56:42.851Z,18.63
2019-05-20T05:57:42.857Z,18.59
2019-05-20T05:58:42.815Z,18.58
2019-05-20T05:59:42.787Z,18.45
2019-05-20T06:00:42.767Z,18.38
2019-05-20T06:01:42.735Z,18.38
2019-05-20T06:02:42.881Z,18.37
2019-05-20T06:03:42.685Z,18.49
2019-05-20T06:04:42.659Z,18.44
2019-05-20T06:05:42.636Z,18.45
2019-05-20T06:06:42.610Z,18.58
2019-05-20T06:07:42.616Z,18.59
2019-05-20T06:08:42.567Z,18.52
2019-05-20T06:09:42.540Z,18.56
2019-05-20T06:10:42.518Z,18.70
2019-05-20T06:11:42.496Z,18.68
2019-05-20T06:12:42.492Z,18.75
2019-05-20T06:13:42.451Z,18.84
2019-05-20T06:14:42.421Z,19.09
2019-05-20T06:15:42.398Z,19.18
2019-05-20T06:16:42.373Z,19.24
2019-05-20T06:17:42.350Z,19.24
2019-05-20T06:18:42.362Z,19.26
2019-05-20T06:19:42.303Z,19.14
2019-05-20T06:20:42.295Z,19.15
2019-05-20T06:21:42.257Z,19.24
2019-05-20T06:22:42.241Z,19.34
2019-05-20T06:23:42.243Z,19.37
2019-05-20T06:24:42.197Z,19.49
2019-05-20T06:25:42.163Z,19.48
2019-05-20T06:26:42.139Z,19.33
2019-05-20T06:27:42.118Z,19.37
2019-05-20T06:28:42.117Z,19.41
2019-05-20T06:29:42.077Z,19.34
2019-05-20T06:30:42.070Z,19.37
2019-05-20T06:31:42.021Z,19.40
2019-05-20T06:32:42.010Z,19.44
2019-05-20T06:33:42.005Z,19.47
2019-05-20T06:34:43.131Z,19.44
2019-05-20T06:35:41.930Z,19.39
2019-05-20T06:36:41.907Z,19.44
2019-05-20T06:37:41.882Z,19.40
2019-05-20T06:38:41.881Z,19.44
2019-05-20T06:39:41.839Z,19.36
2019-05-20T06:40:43.882Z,19.48
2019-05-20T06:41:41.799Z,19.29
2019-05-20T06:42:41.765Z,19.15
2019-05-20T06:43:41.764Z,19.12
2019-05-20T06:44:52.281Z,19.02
2019-05-20T06:45:41.705Z,19.08
2019-05-20T06:46:41.678Z,19.02
2019-05-20T06:47:41.643Z,19.11
2019-05-20T06:48:41.646Z,18.99
2019-05-20T06:49:41.599Z,18.98
2019-05-20T06:50:41.585Z,18.98
2019-05-20T06:51:41.641Z,18.93
2019-05-20T06:52:41.530Z,19.07
2019-05-20T06:53:41.535Z,19.12
2019-05-20T06:54:41.506Z,19.14
2019-05-20T06:55:41.477Z,19.21
2019-05-20T06:56:41.509Z,19.34
2019-05-20T06:57:41.417Z,19.40
2019-05-20T06:58:41.439Z,19.44
2019-05-20T06:59:41.367Z,19.34
2019-05-20T07:00:41.956Z,19.31
2019-05-20T07:01:41.964Z,19.40
2019-05-20T07:02:41.308Z,19.41
2019-05-20T07:03:41.324Z,19.45
2019-05-20T07:04:41.241Z,19.69
2019-05-20T07:05:41.241Z,19.67
2019-05-20T07:06:46.498Z,19.76
2019-05-20T07:07:41.968Z,19.74
2019-05-20T07:08:41.184Z,19.89
2019-05-20T07:09:41.133Z,19.94
2019-05-20T07:10:41.101Z,20.14
2019-05-20T07:11:51.913Z,20.32
2019-05-20T07:12:41.989Z,20.36
2019-05-20T07:13:41.026Z,20.25
2019-05-20T07:14:41.032Z,20.31
2019-05-20T07:15:40.995Z,20.26
2019-05-20T07:16:40.958Z,20.28
2019-05-20T07:17:40.940Z,20.18
2019-05-20T07:18:40.927Z,20.02
2019-05-20T07:19:40.922Z,20.13
2019-05-20T07:20:40.863Z,20.07
2019-05-20T07:21:40.959Z,20.07
2019-05-20T07:22:55.360Z,20.18
2019-05-20T07:23:40.794Z,20.14
2019-05-20T07:24:40.808Z,20.14
2019-05-20T07:25:40.766Z,20.29
2019-05-20T07:26:40.731Z,20.43
2019-05-20T07:27:40.719Z,20.59
2019-05-20T07:28:40.697Z,20.72
2019-05-20T07:29:40.997Z,20.81
2019-05-20T07:30:40.635Z,20.97
2019-05-20T07:31:40.617Z,20.93
2019-05-20T07:32:40.619Z,21.05
2019-05-20T07:33:40.577Z,21.21
2019-05-20T07:34:40.577Z,21.09
2019-05-20T07:35:40.545Z,21.00
2019-05-20T07:36:40.531Z,20.97
2019-05-20T07:37:40.473Z,21.00
2019-05-20T07:38:40.453Z,21.15
2019-05-20T07:39:40.452Z,21.32
2019-05-20T07:40:40.412Z,21.32
2019-05-20T07:41:41.759Z,21.15
2019-05-20T07:42:40.370Z,21.07
2019-05-20T07:43:40.397Z,20.93
2019-05-20T07:44:40.346Z,20.90
2019-05-20T07:45:40.292Z,20.81
2019-05-20T07:46:40.269Z,20.67
2019-05-20T07:47:40.966Z,20.72
2019-05-20T07:48:40.257Z,20.63
2019-05-20T07:49:40.228Z,20.77
2019-05-20T07:50:40.192Z,20.78
2019-05-20T07:51:40.160Z,20.82
2019-05-20T07:52:40.134Z,20.96
2019-05-20T07:53:40.121Z,20.99
2019-05-20T07:54:40.111Z,20.96
2019-05-20T07:55:40.072Z,20.96
2019-05-20T07:56:40.047Z,20.92
2019-05-20T07:57:40.081Z,20.84
2019-05-20T07:58:40.003Z,20.72
2019-05-20T07:59:40.003Z,20.82
2019-05-20T08:00:39.974Z,20.81
2019-05-20T08:01:39.932Z,20.84
2019-05-20T08:02:39.908Z,20.84
2019-05-20T08:03:39.885Z,20.81
2019-05-20T08:04:39.889Z,20.93
2019-05-20T08:05:39.862Z,20.82
2019-05-20T08:06:39.822Z,20.84
2019-05-20T08:07:51.228Z,20.81
2019-05-20T08:08:39.776Z,20.82
2019-05-20T08:09:45.641Z,20.99
2019-05-20T08:10:39.746Z,21.11
2019-05-20T08:11:39.701Z,21.43
2019-05-20T08:12:39.715Z,21.55
2019-05-20T08:13:39.668Z,21.55
2019-05-20T08:14:39.689Z,21.57
2019-05-20T08:15:39.635Z,21.52
2019-05-20T08:16:39.597Z,21.61
2019-05-20T08:17:39.568Z,21.61
2019-05-20T08:18:39.542Z,21.64
2019-05-20T08:19:39.541Z,21.61
2019-05-20T08:20:39.584Z,21.67
2019-05-20T08:21:39.502Z,21.69
2019-05-20T08:22:39.479Z,21.64
2019-05-20T08:23:39.441Z,21.57
2019-05-20T08:24:39.411Z,21.55
2019-05-20T08:25:39.428Z,21.50
2019-05-20T08:26:39.397Z,21.54
2019-05-20T08:27:39.339Z,21.60
2019-05-20T08:28:39.322Z,21.52
2019-05-20T08:29:39.311Z,21.30
2019-05-20T08:30:39.308Z,21.30
2019-05-20T08:31:39.257Z,21.37
2019-05-20T08:32:39.241Z,21.35
2019-05-20T08:33:39.214Z,21.43
2019-05-20T08:34:40.237Z,21.62
2019-05-20T08:35:39.222Z,21.57
2019-05-20T08:36:39.144Z,21.60
2019-05-20T08:37:45.350Z,21.76
2019-05-20T08:38:39.099Z,21.85
2019-05-20T08:39:39.073Z,21.96
2019-05-20T08:40:39.088Z,22.02
2019-05-20T08:41:39.128Z,22.10
2019-05-20T08:42:39.023Z,22.13
2019-05-20T08:43:38.986Z,22.38
2019-05-20T08:44:38.962Z,22.25
2019-05-20T08:45:39.489Z,22.15
2019-05-20T08:46:38.917Z,22.23
2019-05-20T08:47:38.916Z,22.25
2019-05-20T08:48:38.885Z,22.44
2019-05-20T08:49:39.005Z,22.51
2019-05-20T08:50:38.850Z,22.51
2019-05-20T08:51:39.012Z,22.65
2019-05-20T08:52:38.785Z,22.47
2019-05-20T08:53:38.771Z,22.51
2019-05-20T08:54:40.437Z,22.65
2019-05-20T08:55:38.742Z,22.72
2019-05-20T08:56:38.727Z,22.65
2019-05-20T08:57:38.673Z,22.76
2019-05-20T08:58:38.658Z,22.87
2019-05-20T08:59:38.642Z,22.93
2019-05-20T09:00:38.654Z,22.80
2019-05-20T09:01:38.606Z,22.85
2019-05-20T09:02:38.672Z,22.98
2019-05-20T09:03:38.556Z,23.13
2019-05-20T09:04:38.567Z,23.17
2019-05-20T09:05:38.612Z,23.25
2019-05-20T09:06:38.495Z,23.17
2019-05-20T09:07:38.480Z,23.18
2019-05-20T09:08:38.443Z,23.10
2019-05-20T09:09:38.456Z,23.21
2019-05-20T09:10:39.629Z,23.10
2019-05-20T09:11:38.405Z,23.31
2019-05-20T09:12:38.381Z,23.31
2019-05-20T09:13:38.338Z,23.21
2019-05-20T09:14:40.462Z,23.23
2019-05-20T09:15:38.310Z,23.23
2019-05-20T09:16:38.296Z,23.20
2019-05-20T09:17:39.245Z,23.12
2019-05-20T09:18:38.223Z,23.17
2019-05-20T09:19:38.239Z,23.27
2019-05-20T09:20:38.180Z,23.32
2019-05-20T09:21:38.190Z,23.51
2019-05-20T09:22:38.140Z,23.68
2019-05-20T09:23:38.118Z,23.69
2019-05-20T09:24:38.140Z,23.63
2019-05-20T09:25:38.077Z,23.65
2019-05-20T09:26:38.092Z,23.61
2019-05-20T09:27:38.035Z,23.76
2019-05-20T09:28:38.015Z,23.81
2019-05-20T09:29:38.269Z,23.83
2019-05-20T09:30:37.977Z,23.95
2019-05-20T09:31:37.978Z,24.08
2019-05-20T09:32:42.348Z,23.98
2019-05-20T09:33:37.947Z,23.91
2019-05-20T09:34:37.884Z,23.91
2019-05-20T09:35:37.871Z,23.86
2019-05-20T09:36:37.905Z,23.91
2019-05-20T09:37:37.850Z,24.03
2019-05-20T09:38:38.059Z,24.06
2019-05-20T09:39:45.527Z,24.13
2019-05-20T09:40:37.786Z,24.10
2019-05-20T09:41:37.772Z,24.05
2019-05-20T09:42:40.763Z,24.06
2019-05-20T09:43:37.757Z,23.95
2019-05-20T09:44:37.676Z,23.71
2019-05-20T09:45:37.658Z,23.71
2019-05-20T09:46:37.657Z,23.74
2019-05-20T09:47:37.616Z,23.68
2019-05-20T09:48:37.610Z,23.71
2019-05-20T09:49:37.575Z,23.73
2019-05-20T09:50:37.552Z,23.84
2019-05-20T09:51:37.557Z,24.05
2019-05-20T09:52:37.512Z,24.08
2019-05-20T09:53:37.511Z,24.17
2019-05-20T09:54:37.474Z,24.14
2019-05-20T09:55:37.641Z,24.23
2019-05-20T09:56:37.490Z,24.35
2019-05-20T09:57:37.414Z,24.57
2019-05-20T09:58:37.468Z,24.51
2019-05-20T09:59:43.323Z,24.55
2019-05-20T10:00:37.390Z,24.69
2019-05-20T10:01:40.303Z,24.70
2019-05-20T10:02:38.503Z,24.66
2019-05-20T10:03:37.287Z,24.54
2019-05-20T10:04:37.315Z,24.47
2019-05-20T10:05:37.865Z,24.53
2019-05-20T10:06:37.258Z,24.50
2019-05-20T10:07:37.214Z,24.60
2019-05-20T10:08:44.157Z,24.57
2019-05-20T10:09:38.047Z,24.54
2019-05-20T10:10:38.074Z,24.48
2019-05-20T10:11:38.040Z,24.57
2019-05-20T10:12:46.056Z,24.55
2019-05-20T10:13:37.964Z,24.77
2019-05-20T10:14:37.063Z,24.88
2019-05-20T10:15:37.039Z,24.86
2019-05-20T10:16:37.043Z,24.76
2019-05-20T10:17:37.005Z,24.92
2019-05-20T10:18:39.048Z,24.89
2019-05-20T10:19:36.955Z,24.85
2019-05-20T10:20:36.940Z,24.76
2019-05-20T10:21:36.959Z,24.76
2019-05-20T10:22:36.902Z,24.91
2019-05-20T10:23:36.900Z,24.89
2019-05-20T10:24:36.884Z,25.03
2019-05-20T10:25:36.837Z,25.04
2019-05-20T10:26:36.815Z,25.13
2019-05-20T10:27:36.824Z,25.23
2019-05-20T10:28:42.275Z,25.14
2019-05-20T10:29:36.762Z,25.23
2019-05-20T10:30:36.746Z,25.35
2019-05-20T10:31:36.721Z,25.44
2019-05-20T10:32:36.716Z,25.28
2019-05-20T10:33:37.264Z,25.25
2019-05-20T10:34:37.631Z,25.33
2019-05-20T10:35:36.633Z,25.54
2019-05-20T10:36:36.629Z,25.62
2019-05-20T10:37:36.618Z,25.60
2019-05-20T10:38:54.677Z,25.72
2019-05-20T10:39:36.552Z,25.54
2019-05-20T10:40:36.535Z,25.77
2019-05-20T10:41:36.523Z,25.80
2019-05-20T10:42:36.532Z,25.96
2019-05-20T10:43:36.474Z,26.05
2019-05-20T10:44:36.455Z,26.18
2019-05-20T10:45:36.435Z,26.31
2019-05-20T10:46:36.416Z,26.55
2019-05-20T10:47:36.417Z,26.68
2019-05-20T10:48:36.411Z,26.63
2019-05-20T10:49:36.374Z,26.66
2019-05-20T10:50:36.356Z,26.48
2019-05-20T10:51:36.327Z,26.41
2019-05-20T10:52:36.384Z,26.62
2019-05-20T10:53:36.382Z,26.81
2019-05-20T10:54:36.268Z,26.92
2019-05-20T10:55:36.262Z,27.14
2019-05-20T10:56:36.241Z,27.48
2019-05-20T10:57:36.237Z,27.58
2019-05-20T10:58:36.193Z,27.68
2019-05-20T10:59:36.179Z,27.90
2019-05-20T11:00:36.181Z,28.04
2019-05-20T11:01:36.141Z,28.22
2019-05-20T11:02:36.159Z,28.33
2019-05-20T11:03:36.105Z,28.29
2019-05-20T11:04:36.093Z,28.10
2019-05-20T11:05:36.073Z,28.11
2019-05-20T11:06:36.062Z,28.19
2019-05-20T11:07:36.063Z,28.19
2019-05-20T11:08:36.016Z,28.05
2019-05-20T11:09:36.008Z,28.23
2019-05-20T11:10:36.003Z,28.32
2019-05-20T11:11:39.203Z,28.47
2019-05-20T11:12:35.978Z,28.78
2019-05-20T11:13:35.938Z,28.93
2019-05-20T11:14:35.938Z,28.93
2019-05-20T11:15:35.901Z,29.08
2019-05-20T11:16:35.904Z,29.17
2019-05-20T11:17:35.900Z,29.24
2019-05-20T11:18:35.852Z,29.20
2019-05-20T11:19:35.864Z,29.07
2019-05-20T11:20:35.818Z,29.22
2019-05-20T11:21:35.813Z,29.22
2019-05-20T11:22:35.808Z,29.26
2019-05-20T11:23:35.771Z,29.34
2019-05-20T11:24:35.756Z,29.08
2019-05-20T11:25:35.740Z,28.93
2019-05-20T11:26:35.728Z,28.98
2019-05-20T11:27:35.731Z,28.98
2019-05-20T11:28:35.702Z,28.93
2019-05-20T11:29:35.678Z,28.94
2019-05-20T11:30:35.660Z,28.89
2019-05-20T11:31:35.673Z,28.82
2019-05-20T11:32:35.685Z,28.67
2019-05-20T11:33:35.627Z,28.69
2019-05-20T11:34:35.615Z,28.69
2019-05-20T11:35:35.587Z,28.54
2019-05-20T11:36:35.572Z,28.42
2019-05-20T11:37:35.578Z,28.33
2019-05-20T11:38:35.544Z,28.05
2019-05-20T11:39:35.521Z,28.01
2019-05-20T11:40:35.512Z,27.96
2019-05-20T11:42:35.501Z,27.75
2019-05-20T11:43:35.459Z,27.70
2019-05-20T11:44:35.445Z,27.64
2019-05-20T11:45:35.427Z,27.51
2019-05-20T11:46:35.413Z,27.52
2019-05-20T11:47:35.400Z,27.40
2019-05-20T11:48:35.408Z,27.44
2019-05-20T11:49:35.373Z,27.18
2019-05-20T11:50:35.352Z,26.90
2019-05-20T11:51:35.338Z,26.85
2019-05-20T11:52:35.311Z,26.95
2019-05-20T11:53:35.316Z,26.81
2019-05-20T11:54:35.285Z,26.84
2019-05-20T11:55:35.293Z,26.93
2019-05-20T11:56:35.254Z,26.99
2019-05-20T11:57:35.274Z,27.02
2019-05-20T11:58:35.233Z,27.07
2019-05-20T11:59:35.197Z,27.15
2019-05-20T12:00:35.187Z,27.17
2019-05-20T12:01:35.182Z,27.27
2019-05-20T12:02:35.143Z,27.44
2019-05-20T12:03:35.158Z,27.68
2019-05-20T12:04:35.113Z,27.80
2019-05-20T12:05:35.092Z,28.01
2019-05-20T12:06:35.088Z,28.25
2019-05-20T12:07:35.063Z,28.41
2019-05-20T12:08:35.066Z,28.49
2019-05-20T12:09:48.226Z,28.49
2019-05-20T12:10:35.012Z,28.45
2019-05-20T12:11:34.996Z,28.56
2019-05-20T12:12:34.991Z,28.75
2019-05-20T12:13:34.992Z,28.57
2019-05-20T12:14:34.947Z,28.33
2019-05-20T12:15:34.932Z,28.32
2019-05-20T12:16:34.917Z,28.37
2019-05-20T12:17:34.903Z,28.42
2019-05-20T12:18:34.923Z,28.47
2019-05-20T12:19:34.876Z,28.29
2019-05-20T12:20:34.872Z,28.17
2019-05-20T12:21:34.838Z,28.17
2019-05-20T12:22:34.856Z,28.14
2019-05-20T12:23:34.860Z,28.15
2019-05-20T12:24:34.789Z,28.17
2019-05-20T12:25:34.771Z,28.11
2019-05-20T12:26:34.753Z,28.02
2019-05-20T12:27:34.742Z,27.89
2019-05-20T12:28:34.807Z,27.90
2019-05-20T12:29:34.752Z,27.87
2019-05-20T12:30:34.768Z,27.89
2019-05-20T12:31:34.695Z,27.49
2019-05-20T12:32:34.700Z,27.37
2019-05-20T12:33:35.138Z,27.36
2019-05-20T12:34:34.688Z,27.27
2019-05-20T12:35:34.709Z,27.29
2019-05-20T12:36:34.631Z,27.29
2019-05-20T12:37:35.585Z,27.40
2019-05-20T12:38:34.768Z,27.49
2019-05-20T12:39:34.648Z,27.58
2019-05-20T12:40:34.627Z,27.77
2019-05-20T12:41:34.629Z,28.02
2019-05-20T12:42:34.511Z,28.14
2019-05-20T12:43:34.514Z,28.33
2019-05-20T12:44:34.460Z,28.39
2019-05-20T12:45:34.441Z,28.44
2019-05-20T12:46:34.428Z,28.57
2019-05-20T12:47:34.426Z,28.67
2019-05-20T12:48:34.420Z,28.72
2019-05-20T12:49:34.499Z,28.86
2019-05-20T12:50:34.359Z,29.01
2019-05-20T12:51:34.352Z,28.97
2019-05-20T12:52:34.325Z,28.79
2019-05-20T12:53:34.345Z,28.54